createdAt,value
2022-08-17T00:03:05.690Z,72.87
2022-08-17T00:08:19.149Z,73.13
2022-08-17T00:13:45.806Z,73.32
2022-08-17T00:19:09.962Z,73.17
2022-08-17T00:24:38.101Z,73.05
2022-08-17T00:30:00.378Z,73.20
2022-08-17T00:35:29.776Z,73.07
2022-08-17T00:40:49.031Z,73.17
2022-08-17T00:46:19.536Z,73.57
2022-08-17T00:51:45.843Z,73.58
2022-08-17T00:57:21.444Z,73.65
2022-08-17T01:02:51.084Z,73.48
2022-08-17T01:08:12.938Z,73.49
2022-08-17T01:13:44.376Z,73.21
2022-08-17T01:19:18.554Z,73.38
2022-08-17T01:24:46.791Z,73.33
2022-08-17T01:30:00.441Z,73.38
2022-08-17T01:35:30.954Z,73.37
2022-08-17T01:41:28.322Z,73.54
2022-08-17T01:46:58.097Z,73.76
2022-08-17T01:52:29.888Z,73.71
2022-08-17T01:57:58.160Z,73.36
2022-08-17T02:03:28.188Z,73.73
2022-08-17T02:09:01.773Z,73.65
2022-08-17T02:14:23.854Z,73.74
2022-08-17T02:19:44.064Z,73.93
2022-08-17T02:24:59.509Z,73.78
2022-08-17T02:30:59.243Z,73.89
2022-08-17T02:36:11.584Z,74.19
2022-08-17T02:41:28.618Z,74.25
2022-08-17T02:46:47.836Z,74.12
2022-08-17T02:52:16.002Z,73.94
2022-08-17T02:58:05.181Z,74.07
2022-08-17T03:03:23.995Z,74.09
2022-08-17T03:08:47.440Z,74.13
2022-08-17T03:14:16.809Z,74.11
2022-08-17T03:19:43.274Z,74.17
2022-08-17T03:25:13.086Z,74.20
2022-08-17T03:30:43.527Z,74.39
2022-08-17T03:36:12.136Z,74.40
2022-08-17T03:41:32.341Z,74.50
2022-08-17T03:47:18.321Z,74.48
2022-08-17T03:53:05.363Z,74.51
2022-08-17T03:58:32.952Z,74.71
2022-08-17T04:03:57.169Z,74.61
2022-08-17T04:09:28.208Z,74.88
2022-08-17T04:14:51.669Z,74.88
2022-08-17T04:20:17.574Z,75.04
2022-08-17T04:25:43.949Z,74.95
2022-08-17T04:31:04.928Z,75.12
2022-08-17T04:36:34.507Z,75.19
2022-08-17T04:42:09.424Z,75.08
2022-08-17T04:47:37.099Z,74.92
2022-08-17T04:52:49.585Z,74.84
2022-08-17T04:58:11.555Z,74.43
2022-08-17T05:03:39.394Z,74.28
2022-08-17T05:09:07.901Z,74.05
2022-08-17T05:14:35.551Z,73.75
2022-08-17T05:20:03.186Z,73.39
2022-08-17T05:25:12.141Z,73.09
2022-08-17T05:30:21.843Z,72.83
2022-08-17T05:35:51.362Z,72.82
2022-08-17T05:41:06.785Z,72.29
2022-08-17T05:46:29.959Z,71.97
2022-08-17T05:52:08.901Z,71.39
2022-08-17T05:58:15.775Z,70.36
2022-08-17T06:03:49.477Z,69.97
2022-08-17T06:09:26.528Z,70.07
2022-08-17T06:14:54.559Z,70.13
2022-08-17T06:20:16.113Z,69.62
2022-08-17T06:25:31.654Z,69.02
2022-08-17T06:30:59.337Z,68.28
2022-08-17T06:36:19.467Z,67.16
2022-08-17T06:41:37.929Z,67.23
2022-08-17T06:46:52.605Z,66.64
2022-08-17T06:52:09.306Z,65.49
2022-08-17T06:57:29.813Z,63.86
2022-08-17T07:02:51.890Z,63.19
2022-08-17T07:08:18.770Z,63.27
2022-08-17T07:13:39.364Z,62.61
2022-08-17T07:18:48.075Z,61.85
2022-08-17T07:24:29.572Z,61.54
2022-08-17T07:29:42.265Z,60.61
2022-08-17T07:35:15.379Z,59.38
2022-08-17T07:40:30.208Z,59.76
2022-08-17T07:46:00.034Z,58.82
2022-08-17T07:51:18.427Z,57.19
2022-08-17T07:56:43.234Z,56.46
2022-08-17T08:02:06.398Z,55.64
2022-08-17T08:07:26.656Z,54.77
2022-08-17T08:12:40.174Z,54.59
2022-08-17T08:17:54.898Z,54.34
2022-08-17T08:23:12.618Z,54.46
2022-08-17T08:28:35.385Z,53.60
2022-08-17T08:33:56.437Z,53.31
2022-08-17T08:39:14.537Z,53.19
2022-08-17T08:45:00.414Z,52.81
2022-08-17T08:50:36.877Z,52.56
2022-08-17T08:55:54.101Z,52.88
2022-08-17T09:01:24.603Z,52.58
2022-08-17T09:06:46.137Z,52.26
2022-08-17T09:12:03.924Z,51.98
2022-08-17T09:17:16.509Z,51.95
2022-08-17T09:22:33.954Z,51.50
2022-08-17T09:27:57.611Z,51.45
2022-08-17T09:33:10.684Z,51.75
2022-08-17T09:38:26.286Z,51.40
2022-08-17T09:43:45.003Z,50.88
2022-08-17T09:48:58.808Z,50.35
2022-08-17T09:54:38.081Z,50.56
2022-08-17T10:00:12.137Z,50.21
2022-08-17T10:05:24.270Z,49.55
2022-08-17T10:10:43.899Z,49.67
2022-08-17T10:16:15.014Z,49.60
2022-08-17T10:22:00.614Z,49.41
2022-08-17T10:27:23.268Z,48.96
2022-08-17T10:32:37.086Z,48.82
2022-08-17T10:37:59.605Z,48.77
2022-08-17T10:43:32.000Z,48.78
2022-08-17T10:48:42.899Z,48.64
2022-08-17T10:54:02.269Z,48.36
2022-08-17T10:59:09.928Z,48.26
2022-08-17T11:04:39.488Z,47.97
2022-08-17T11:10:05.718Z,47.68
2022-08-17T11:15:38.486Z,48.03
2022-08-17T11:21:37.903Z,47.90
2022-08-17T11:26:49.112Z,47.62
2022-08-17T11:32:08.000Z,47.43
2022-08-17T11:37:43.359Z,46.73
2022-08-17T11:43:25.574Z,46.55
2022-08-17T11:49:00.763Z,46.27
2022-08-17T11:54:45.014Z,46.26
2022-08-17T12:00:07.071Z,45.94
2022-08-17T12:05:35.379Z,45.95
2022-08-17T12:11:04.916Z,45.44
2022-08-17T12:16:17.931Z,45.39
2022-08-17T12:21:41.693Z,45.04
2022-08-17T12:26:56.897Z,44.85
2022-08-17T12:32:08.017Z,44.44
2022-08-17T12:37:20.811Z,44.29
2022-08-17T12:42:37.763Z,44.32
2022-08-17T12:48:04.403Z,43.74
2022-08-17T12:53:17.040Z,43.67
2022-08-17T12:58:30.147Z,43.27
2022-08-17T13:03:52.820Z,42.95
2022-08-17T13:09:13.277Z,43.04
2022-08-17T13:14:21.108Z,42.82
2022-08-17T13:19:39.979Z,42.95
2022-08-17T13:25:04.222Z,42.43
2022-08-17T13:30:21.196Z,42.49
2022-08-17T13:35:47.075Z,42.28
2022-08-17T13:40:58.499Z,41.85
2022-08-17T13:46:20.148Z,41.54
2022-08-17T13:51:34.983Z,41.26
2022-08-17T13:57:22.446Z,41.25
2022-08-17T14:02:34.235Z,41.02
2022-08-17T14:07:43.533Z,41.13
2022-08-17T14:12:52.471Z,40.80
2022-08-17T14:18:03.065Z,40.86
2022-08-17T14:23:10.817Z,40.61
2022-08-17T14:28:19.099Z,40.48
2022-08-17T14:33:27.426Z,40.32
2022-08-17T14:38:43.208Z,39.87
2022-08-17T14:43:54.128Z,40.00
2022-08-17T14:49:03.333Z,39.66
2022-08-17T14:54:25.603Z,39.54
2022-08-17T14:59:59.186Z,39.34
2022-08-17T15:05:58.581Z,39.15
2022-08-17T15:11:14.531Z,39.32
2022-08-17T15:16:29.999Z,39.12
2022-08-17T15:21:40.049Z,38.84
2022-08-17T15:27:33.578Z,38.91
2022-08-17T15:33:13.840Z,38.79
2022-08-17T15:38:30.244Z,38.46
2022-08-17T15:43:40.771Z,38.54
2022-08-17T15:49:03.297Z,38.38
2022-08-17T15:54:22.871Z,38.32
2022-08-17T15:59:38.520Z,38.61
2022-08-17T16:04:50.625Z,38.89
2022-08-17T16:10:18.694Z,39.25
2022-08-17T16:15:32.113Z,39.46
2022-08-17T16:20:46.128Z,39.72
2022-08-17T16:26:10.469Z,40.09
2022-08-17T16:31:21.265Z,40.25
2022-08-17T16:36:35.741Z,40.59
2022-08-17T16:42:43.162Z,40.97
2022-08-17T16:47:52.602Z,41.51
2022-08-17T16:53:11.034Z,41.45
2022-08-17T16:58:41.610Z,41.94
2022-08-17T17:04:05.965Z,42.29
2022-08-17T17:09:34.015Z,42.64
2022-08-17T17:15:02.035Z,43.12
2022-08-17T17:20:24.103Z,43.34
2022-08-17T17:25:48.843Z,43.68
2022-08-17T17:31:07.307Z,44.02
2022-08-17T17:36:27.533Z,44.48
2022-08-17T17:41:43.168Z,44.67
2022-08-17T17:47:11.348Z,45.12
2022-08-17T17:52:32.973Z,45.46
2022-08-17T17:57:58.017Z,45.77
2022-08-17T18:03:21.358Z,46.01
2022-08-17T18:08:55.081Z,46.33
2022-08-17T18:14:26.308Z,46.61
2022-08-17T18:19:34.298Z,47.03
2022-08-17T18:24:47.510Z,47.28
2022-08-17T18:29:56.948Z,47.50
2022-08-17T18:35:28.568Z,47.83
2022-08-17T18:40:40.148Z,48.20
2022-08-17T18:45:51.466Z,48.43
2022-08-17T18:51:21.625Z,48.89
2022-08-17T18:56:46.104Z,49.12
2022-08-17T19:02:16.009Z,49.48
2022-08-17T19:07:54.532Z,49.82
2022-08-17T19:13:15.227Z,50.18
2022-08-17T19:18:48.853Z,50.60
2022-08-17T19:24:04.871Z,50.95
2022-08-17T19:29:22.429Z,51.19
2022-08-17T19:34:40.285Z,51.40
2022-08-17T19:40:10.459Z,51.73
2022-08-17T19:45:45.964Z,52.00
2022-08-17T19:51:09.851Z,52.18
2022-08-17T19:56:46.436Z,52.52
2022-08-17T20:02:03.509Z,52.86
2022-08-17T20:07:19.947Z,53.16
2022-08-17T20:12:36.409Z,53.46
2022-08-17T20:17:47.743Z,53.75
2022-08-17T20:23:05.997Z,54.14
2022-08-17T20:28:25.332Z,54.34
2022-08-17T20:33:42.072Z,54.59
2022-08-17T20:39:00.567Z,55.05
2022-08-17T20:44:41.782Z,55.29
2022-08-17T20:50:07.958Z,55.58
2022-08-17T20:55:53.352Z,55.98
2022-08-17T21:01:20.290Z,56.32
2022-08-17T21:06:30.934Z,56.63
2022-08-17T21:12:05.026Z,56.91
2022-08-17T21:17:38.769Z,57.23
2022-08-17T21:23:00.759Z,57.51
2022-08-17T21:28:33.718Z,57.76
2022-08-17T21:34:30.645Z,58.01
2022-08-17T21:39:47.478Z,58.33
2022-08-17T21:45:21.112Z,58.65
2022-08-17T21:50:32.323Z,58.95
2022-08-17T21:55:53.875Z,59.16
2022-08-17T22:01:27.021Z,59.44
2022-08-17T22:06:56.723Z,59.76
2022-08-17T22:12:12.666Z,60.04
2022-08-17T22:17:46.756Z,60.34
2022-08-17T22:23:34.691Z,60.61
2022-08-17T22:28:50.795Z,60.83
2022-08-17T22:34:16.189Z,61.16
2022-08-17T22:39:42.073Z,61.47
2022-08-17T22:44:55.025Z,61.63
2022-08-17T22:50:06.494Z,61.91
2022-08-17T22:55:37.026Z,62.10
2022-08-17T23:00:50.781Z,62.36
2022-08-17T23:06:10.128Z,62.48
2022-08-17T23:11:36.892Z,62.85
2022-08-17T23:17:01.717Z,63.02
2022-08-17T23:22:12.641Z,63.29
2022-08-17T23:27:30.755Z,63.45
2022-08-17T23:32:47.425Z,63.52
2022-08-17T23:38:15.082Z,63.64
2022-08-17T23:43:25.761Z,63.86
2022-08-17T23:48:56.766Z,64.01
2022-08-17T23:54:12.080Z,64.17
2022-08-17T23:59:22.458Z,64.46
